Time;durP1;ratioP1;P1;durP2;ratioP2;P2;SDS_P1;SDS_P2;PMS_P1;PMS_P2;Temp;Humidity;BMP_temperature;BMP_pressure;BME280_temperature;BME280_humidity;BME280_pressure;Samples;Min_cycle;Max_cycle;Signal;HPM_P1;HPM_P2
2022/07/25 00:02:44;;;;;;;8.67;7.97;;;25.30;29.50;;;;;;10453307;28;20900;-72
2022/07/25 00:07:48;;;;;;;8.53;7.93;;;25.20;29.90;;;;;;10447129;28;20347;-73
2022/07/25 00:12:51;;;;;;;8.33;7.63;;;25.20;29.60;;;;;;10449236;28;20235;-73
2022/07/25 00:17:56;;;;;;;8.50;7.90;;;25.20;29.50;;;;;;10451336;28;20224;-73
2022/07/25 00:22:59;;;;;;;8.57;7.83;;;25.30;29.90;;;;;;10450466;28;20231;-73
2022/07/25 00:28:03;;;;;;;8.90;8.27;;;25.30;29.70;;;;;;10447838;28;20870;-72
2022/07/25 00:33:07;;;;;;;8.60;7.90;;;25.30;29.80;;;;;;10449764;28;20238;-72
2022/07/25 00:38:10;;;;;;;8.13;7.47;;;25.20;30.00;;;;;;10444952;28;20227;-72
2022/07/25 00:43:14;;;;;;;8.27;7.57;;;25.20;29.50;;;;;;10446253;28;20236;-73
2022/07/25 00:48:18;;;;;;;9.00;8.20;;;25.10;29.60;;;;;;10441021;28;20220;-72
2022/07/25 00:53:22;;;;;;;8.47;7.77;;;25.10;30.10;;;;;;10452291;28;20697;-72
2022/07/25 00:58:25;;;;;;;7.63;7.13;;;25.00;29.90;;;;;;10447870;28;20243;-72
2022/07/25 01:03:30;;;;;;;9.40;8.47;;;24.90;30.00;;;;;;10453732;28;20232;-73
2022/07/25 01:08:34;;;;;;;7.40;6.90;;;24.70;30.70;;;;;;10453112;28;20243;-73
2022/07/25 01:13:38;;;;;;;8.10;7.40;;;24.70;30.10;;;;;;10456998;28;20267;-72
2022/07/25 01:18:42;;;;;;;8.67;8.03;;;24.70;30.40;;;;;;10457627;28;20248;-73
2022/07/25 01:23:47;;;;;;;8.73;7.83;;;24.60;31.00;;;;;;10455840;28;20228;-72
2022/07/25 01:28:50;;;;;;;8.90;8.10;;;24.50;30.90;;;;;;10455394;28;20481;-70
2022/07/25 01:33:53;;;;;;;9.27;8.50;;;24.30;30.50;;;;;;10461992;28;20704;-70
2022/07/25 01:38:58;;;;;;;8.43;7.83;;;24.20;30.60;;;;;;10459167;28;20235;-70
2022/07/25 01:44:01;;;;;;;8.60;8.00;;;24.10;31.60;;;;;;10459765;28;20228;-70
2022/07/25 01:49:05;;;;;;;9.27;8.57;;;24.10;30.60;;;;;;10461382;28;20223;-69
2022/07/25 01:54:09;;;;;;;9.70;8.90;;;24.00;31.40;;;;;;10460111;28;20659;-70
2022/07/25 01:59:13;;;;;;;9.13;8.43;;;23.90;31.90;;;;;;10461429;28;20594;-69
2022/07/25 02:04:16;;;;;;;8.43;7.77;;;23.70;31.60;;;;;;10460988;28;20235;-69
2022/07/25 02:09:21;;;;;;;8.47;7.80;;;23.60;31.80;;;;;;10457896;28;20236;-69
2022/07/25 02:14:24;;;;;;;9.30;8.60;;;23.50;32.50;;;;;;10464922;28;20244;-70
2022/07/25 02:19:27;;;;;;;9.30;8.60;;;23.40;32.20;;;;;;10462420;28;20252;-69
2022/07/25 02:24:32;;;;;;;8.07;7.37;;;23.50;32.20;;;;;;10459930;28;20230;-69
2022/07/25 02:29:35;;;;;;;8.63;8.00;;;23.50;32.40;;;;;;10459865;28;20220;-69
2022/07/25 02:34:39;;;;;;;8.73;8.13;;;23.40;31.90;;;;;;10456093;28;20755;-69
2022/07/25 02:39:43;;;;;;;9.23;8.47;;;23.40;32.10;;;;;;10458672;28;20227;-69
2022/07/25 02:44:46;;;;;;;9.90;9.00;;;23.40;32.80;;;;;;10459955;28;20232;-70
2022/07/25 02:49:49;;;;;;;9.60;8.90;;;23.30;32.30;;;;;;10460494;28;20239;-69
2022/07/25 02:54:54;;;;;;;7.80;7.20;;;23.20;32.50;;;;;;10459141;28;20221;-69
2022/07/25 02:59:57;;;;;;;8.50;7.80;;;23.20;33.00;;;;;;10458336;28;20217;-69
2022/07/25 03:05:00;;;;;;;8.00;7.30;;;23.20;32.50;;;;;;10461248;28;20228;-69
2022/07/25 03:10:07;;;;;;;8.30;7.70;;;23.10;32.40;;;;;;10457275;28;20708;-69
2022/07/25 03:15:14;;;;;;;8.60;8.00;;;23.10;33.10;;;;;;10457574;28;20224;-70
2022/07/25 03:20:17;;;;;;;10.50;9.53;;;23.10;32.60;;;;;;10461149;28;20220;-70
2022/07/25 03:25:22;;;;;;;9.13;8.43;;;23.10;32.90;;;;;;10455439;28;20236;-69
2022/07/25 03:30:25;;;;;;;9.27;8.57;;;23.00;33.10;;;;;;10457893;28;20249;-69
2022/07/25 03:35:28;;;;;;;8.07;7.47;;;23.00;32.70;;;;;;10453386;28;20232;-69
2022/07/25 03:40:33;;;;;;;8.43;7.83;;;22.90;32.50;;;;;;10459955;28;20722;-69
2022/07/25 03:45:36;;;;;;;9.87;8.97;;;22.80;33.10;;;;;;10455600;28;20254;-69
2022/07/25 03:50:39;;;;;;;8.53;7.80;;;22.80;32.80;;;;;;10460008;28;20224;-69
2022/07/25 03:55:44;;;;;;;9.00;8.20;;;22.70;32.90;;;;;;10457448;28;20233;-70
2022/07/25 04:00:47;;;;;;;8.97;8.37;;;22.70;33.40;;;;;;10457403;28;20221;-70
2022/07/25 04:05:51;;;;;;;9.00;8.30;;;22.70;33.10;;;;;;10455853;28;20229;-70
2022/07/25 04:10:55;;;;;;;8.10;7.50;;;22.70;33.00;;;;;;10456321;28;20231;-70
2022/07/25 04:15:58;;;;;;;8.73;8.10;;;22.70;33.50;;;;;;10457018;28;20224;-69
2022/07/25 04:21:01;;;;;;;8.73;8.13;;;22.60;33.20;;;;;;10456924;28;20287;-69
2022/07/25 04:26:06;;;;;;;8.63;8.03;;;22.60;33.40;;;;;;10458244;28;20223;-69
2022/07/25 04:31:09;;;;;;;8.30;7.60;;;22.60;34.00;;;;;;10462859;28;20232;-69
2022/07/25 04:36:13;;;;;;;8.90;8.20;;;22.60;33.70;;;;;;10463291;28;20244;-69
2022/07/25 04:41:17;;;;;;;8.87;8.17;;;22.60;33.90;;;;;;10460404;28;20216;-69
2022/07/25 04:46:21;;;;;;;8.10;7.50;;;22.60;34.40;;;;;;10460407;28;20224;-69
2022/07/25 04:51:25;;;;;;;8.90;8.20;;;22.60;34.10;;;;;;10461705;28;20232;-69
2022/07/25 04:56:29;;;;;;;9.30;8.60;;;22.60;34.10;;;;;;10462732;28;20239;-69
2022/07/25 05:01:32;;;;;;;9.20;8.43;;;22.60;35.10;;;;;;10462982;28;20236;-69
2022/07/25 05:06:36;;;;;;;9.47;8.57;;;22.70;34.90;;;;;;10461853;28;20250;-69
2022/07/25 05:11:40;;;;;;;9.00;8.23;;;22.70;34.90;;;;;;10468776;28;20224;-70
2022/07/25 05:16:50;;;;;;;10.13;9.30;;;22.80;35.80;;;;;;10461173;28;20311;-69
2022/07/25 05:21:54;;;;;;;10.90;9.90;;;22.90;35.60;;;;;;10464822;28;20223;-69
2022/07/25 05:26:58;;;;;;;9.80;9.00;;;23.00;35.70;;;;;;10469117;28;20239;-70
2022/07/25 05:32:02;;;;;;;10.33;9.50;;;23.10;36.50;;;;;;10466196;28;20309;-69
2022/07/25 05:37:06;;;;;;;12.57;11.50;;;23.20;36.00;;;;;;10471556;28;20278;-75
2022/07/25 05:42:10;;;;;;;10.80;9.73;;;23.40;36.30;;;;;;10478995;28;20235;-74
2022/07/25 05:47:14;;;;;;;10.50;9.60;;;23.50;36.40;;;;;;10466421;28;20587;-75
2022/07/25 05:52:17;;;;;;;10.30;9.47;;;23.70;36.10;;;;;;10466696;28;20235;-75
2022/07/25 05:57:22;;;;;;;11.17;10.27;;;23.80;36.10;;;;;;10469122;28;20228;-75
2022/07/25 06:02:25;;;;;;;9.97;9.17;;;23.90;36.60;;;;;;10471955;28;20252;-74
2022/07/25 06:07:29;;;;;;;10.63;9.80;;;24.10;36.20;;;;;;10473986;28;20229;-75
2022/07/25 06:12:33;;;;;;;11.17;10.03;;;24.30;36.30;;;;;;10470783;28;21765;-75
2022/07/25 06:17:38;;;;;;;10.07;9.33;;;24.50;36.80;;;;;;10459012;28;20224;-72
2022/07/25 06:22:42;;;;;;;10.17;9.47;;;24.70;36.40;;;;;;10452490;28;20256;-73
2022/07/25 06:27:46;;;;;;;10.00;9.20;;;24.90;36.20;;;;;;10456557;28;20233;-73
2022/07/25 06:32:50;;;;;;;11.27;10.37;;;25.00;36.30;;;;;;10460786;28;20228;-72
2022/07/25 06:37:53;;;;;;;11.37;10.47;;;25.20;36.30;;;;;;10458747;28;20224;-72
2022/07/25 06:42:58;;;;;;;10.87;10.07;;;25.40;36.20;;;;;;10458387;28;20608;-73
2022/07/25 06:48:01;;;;;;;10.10;9.30;;;25.50;36.20;;;;;;10456078;28;20224;-73
2022/07/25 06:53:05;;;;;;;9.77;8.97;;;25.70;35.80;;;;;;10462570;28;20220;-72
2022/07/25 06:58:10;;;;;;;9.77;9.07;;;25.90;35.40;;;;;;10458478;28;21030;-74
2022/07/25 07:03:13;;;;;;;9.93;9.23;;;26.10;35.70;;;;;;10468182;28;20223;-75
2022/07/25 07:08:16;;;;;;;10.73;9.83;;;26.30;35.30;;;;;;10468449;28;20225;-75
2022/07/25 07:13:22;;;;;;;10.27;9.47;;;26.50;35.20;;;;;;10465789;28;20233;-75
2022/07/25 07:18:26;;;;;;;10.17;9.37;;;26.70;35.40;;;;;;10467541;28;20224;-75
2022/07/25 07:23:29;;;;;;;9.77;8.97;;;26.90;35.00;;;;;;10473297;28;20599;-75
2022/07/25 07:28:35;;;;;;;9.83;9.13;;;27.10;34.90;;;;;;10460363;28;20224;-70
2022/07/25 07:33:39;;;;;;;10.37;9.67;;;27.30;34.60;;;;;;10455105;28;20232;-70
2022/07/25 07:38:43;;;;;;;10.13;9.33;;;27.50;34.30;;;;;;10453721;28;20228;-70
2022/07/25 07:43:47;;;;;;;10.53;9.73;;;27.70;34.30;;;;;;10455007;28;20314;-70
2022/07/25 07:48:51;;;;;;;10.23;9.53;;;27.80;34.00;;;;;;10451355;28;20269;-70
2022/07/25 07:59:16;;;;;;;10.67;9.87;;;28.30;33.80;;;;;;10457668;28;20224;-71
2022/07/25 08:04:19;;;;;;;9.83;9.13;;;28.50;33.70;;;;;;10464940;28;20229;-75
2022/07/25 08:09:24;;;;;;;10.90;10.00;;;28.70;33.30;;;;;;10468191;28;20627;-75
2022/07/25 08:14:29;;;;;;;10.57;9.77;;;29.00;33.20;;;;;;10465420;28;20243;-75
2022/07/25 08:19:33;;;;;;;10.87;9.97;;;29.20;32.60;;;;;;10467260;28;20228;-75
2022/07/25 08:24:36;;;;;;;10.20;9.50;;;29.40;32.80;;;;;;10468272;28;20235;-75
2022/07/25 08:29:41;;;;;;;10.47;9.73;;;29.60;32.10;;;;;;10465550;28;20224;-75
2022/07/25 08:34:44;;;;;;;10.77;9.97;;;29.90;31.50;;;;;;10466405;28;20691;-75
2022/07/25 08:39:47;;;;;;;10.43;9.67;;;30.00;31.50;;;;;;10466320;28;20224;-75
2022/07/25 08:44:59;;;;;;;10.47;9.73;;;30.20;31.70;;;;;;10466465;28;20956;-75
2022/07/25 08:50:04;;;;;;;9.97;9.27;;;30.40;31.00;;;;;;10463913;28;20214;-70
2022/07/25 08:55:12;;;;;;;9.97;9.17;;;30.60;31.00;;;;;;10461216;28;21069;-70
2022/07/25 09:00:20;;;;;;;9.97;9.27;;;30.80;30.70;;;;;;10461272;28;20221;-70
2022/07/25 09:05:24;;;;;;;10.63;9.83;;;31.10;29.90;;;;;;10466456;28;20232;-70
2022/07/25 09:10:28;;;;;;;10.70;10.00;;;31.30;30.00;;;;;;10460733;28;21240;-70
2022/07/25 09:15:34;;;;;;;10.10;9.23;;;31.50;29.60;;;;;;10463916;28;20227;-70
2022/07/25 09:20:40;;;;;;;9.67;8.97;;;31.70;29.40;;;;;;10460964;28;20722;-70
2022/07/25 09:25:43;;;;;;;9.97;9.20;;;32.00;28.90;;;;;;10465057;28;20232;-70
2022/07/25 09:30:55;;;;;;;10.17;9.47;;;32.20;29.10;;;;;;10465303;28;20236;-70
2022/07/25 09:35:58;;;;;;;10.50;9.80;;;32.40;28.80;;;;;;10459260;28;20229;-70
2022/07/25 09:41:02;;;;;;;10.60;9.70;;;32.60;29.00;;;;;;10464180;28;20222;-72
2022/07/25 09:46:08;;;;;;;10.97;10.17;;;32.80;28.30;;;;;;10460357;28;20802;-70
2022/07/25 09:51:11;;;;;;;10.83;10.03;;;32.90;27.50;;;;;;10459460;28;20236;-70
2022/07/25 09:56:14;;;;;;;10.97;10.20;;;33.10;27.80;;;;;;10458131;28;20226;-70
2022/07/25 10:01:27;;;;;;;9.63;9.00;;;33.20;27.40;;;;;;10457363;28;20232;-70
2022/07/25 10:06:38;;;;;;;10.73;9.97;;;33.40;26.80;;;;;;10462205;28;20228;-70
2022/07/25 10:12:02;;;;;;;10.30;9.50;;;33.50;26.90;;;;;;10459561;28;20234;-70
2022/07/25 10:17:07;;;;;;;10.77;9.97;;;33.70;26.80;;;;;;10457073;28;20617;-70
2022/07/25 10:22:11;;;;;;;10.60;9.80;;;33.90;26.30;;;;;;10458412;28;20649;-70
2022/07/25 10:27:21;;;;;;;9.80;9.20;;;34.00;26.40;;;;;;10460017;28;20486;-70
2022/07/25 10:32:34;;;;;;;10.97;10.17;;;34.20;26.90;;;;;;10461200;28;21011;-71
2022/07/25 10:37:37;;;;;;;10.80;10.00;;;34.40;25.80;;;;;;10443885;28;20244;-71
2022/07/25 10:42:45;;;;;;;10.53;9.83;;;34.60;25.90;;;;;;10444694;28;20235;-71
2022/07/25 10:47:54;;;;;;;11.40;10.47;;;34.70;25.30;;;;;;10446239;28;20232;-71
2022/07/25 10:53:06;;;;;;;10.47;9.70;;;34.90;24.30;;;;;;10452926;28;20732;-71
2022/07/25 10:58:09;;;;;;;9.57;8.87;;;35.00;23.70;;;;;;10457700;28;20314;-71
2022/07/25 11:03:22;;;;;;;10.07;9.37;;;35.00;23.70;;;;;;10457695;28;20305;-71
2022/07/25 11:08:31;;;;;;;10.13;9.33;;;35.10;23.10;;;;;;10454796;28;20773;-71
2022/07/25 11:13:38;;;;;;;9.97;9.27;;;35.30;22.30;;;;;;10456537;28;20226;-71
2022/07/25 11:18:43;;;;;;;10.00;9.30;;;35.40;22.20;;;;;;10458355;28;20231;-71
2022/07/25 11:23:50;;;;;;;9.87;9.27;;;35.50;22.00;;;;;;10455361;28;20225;-71
2022/07/25 11:28:53;;;;;;;9.63;8.83;;;35.60;22.10;;;;;;10455083;28;20568;-72
2022/07/25 11:33:58;;;;;;;8.90;8.20;;;35.70;22.50;;;;;;10454170;28;20590;-71
2022/07/25 11:39:02;;;;;;;8.87;8.27;;;35.80;21.80;;;;;;10454701;28;20224;-74
2022/07/25 11:44:06;;;;;;;9.17;8.50;;;35.90;21.40;;;;;;10456132;28;20300;-71
2022/07/25 11:49:11;;;;;;;9.27;8.57;;;36.00;21.00;;;;;;10457685;28;20323;-72
2022/07/25 11:54:15;;;;;;;8.80;8.20;;;36.20;20.50;;;;;;10456047;28;20257;-72
2022/07/25 11:59:18;;;;;;;8.80;8.20;;;36.20;20.00;;;;;;10453040;28;20609;-71
2022/07/25 12:04:23;;;;;;;8.73;8.20;;;36.20;19.60;;;;;;10454652;28;20819;-71
2022/07/25 12:09:26;;;;;;;8.67;8.07;;;36.20;19.60;;;;;;10453284;28;20235;-71
2022/07/25 12:14:29;;;;;;;8.27;7.77;;;36.30;19.70;;;;;;10456070;28;20311;-71
2022/07/25 12:19:40;;;;;;;8.33;7.73;;;36.40;19.60;;;;;;10454294;28;20227;-71
2022/07/25 12:24:43;;;;;;;8.60;7.80;;;36.60;18.90;;;;;;10454526;28;20254;-71
2022/07/25 12:29:47;;;;;;;8.20;7.60;;;36.60;19.30;;;;;;10453448;28;20239;-71
2022/07/25 12:34:51;;;;;;;7.97;7.47;;;36.70;19.30;;;;;;10450324;28;20239;-69
2022/07/25 12:39:54;;;;;;;7.73;7.13;;;36.80;18.00;;;;;;10452152;28;20234;-70
2022/07/25 12:44:58;;;;;;;7.63;7.13;;;36.90;18.70;;;;;;10457346;28;20801;-69
2022/07/25 12:50:03;;;;;;;7.53;7.00;;;37.00;18.00;;;;;;10455149;28;20221;-70
2022/07/25 12:55:10;;;;;;;6.60;6.20;;;37.00;17.20;;;;;;10457561;28;20239;-72
2022/07/25 13:00:16;;;;;;;6.77;6.30;;;37.10;17.20;;;;;;10461140;28;20247;-71
2022/07/25 13:05:21;;;;;;;6.57;6.17;;;37.10;16.30;;;;;;10459214;28;20227;-72
2022/07/25 13:10:25;;;;;;;6.63;6.20;;;37.10;16.20;;;;;;10461328;28;20228;-71
2022/07/25 13:15:29;;;;;;;7.17;6.67;;;37.10;16.10;;;;;;10458352;28;20232;-71
2022/07/25 13:20:36;;;;;;;7.10;6.50;;;37.10;16.30;;;;;;10454971;28;20232;-70
2022/07/25 13:25:39;;;;;;;6.00;5.63;;;37.20;15.80;;;;;;10457204;28;20231;-71
2022/07/25 13:30:42;;;;;;;6.53;6.13;;;37.30;16.10;;;;;;10460927;28;20224;-71
2022/07/25 13:35:47;;;;;;;7.03;5.70;;;37.40;15.80;;;;;;10455935;28;20232;-71
2022/07/25 13:40:50;;;;;;;6.17;5.77;;;37.50;15.40;;;;;;10460613;28;20224;-71
2022/07/25 13:46:01;;;;;;;6.20;5.67;;;37.50;14.50;;;;;;10459889;28;20316;-71
2022/07/25 13:51:06;;;;;;;6.43;5.93;;;37.50;14.40;;;;;;10459167;28;20812;-71
2022/07/25 13:56:10;;;;;;;5.83;5.43;;;37.60;14.40;;;;;;10461111;28;20236;-71
2022/07/25 14:01:14;;;;;;;6.20;5.80;;;37.60;14.50;;;;;;10460271;28;20225;-71
2022/07/25 14:06:18;;;;;;;6.00;5.57;;;37.70;14.50;;;;;;10459613;28;20237;-71
2022/07/25 14:11:21;;;;;;;6.20;5.80;;;37.80;14.30;;;;;;10464612;28;20353;-70
2022/07/25 14:16:33;;;;;;;6.23;5.73;;;37.90;14.60;;;;;;10456660;28;20841;-71
2022/07/25 14:21:37;;;;;;;5.87;5.50;;;38.00;13.90;;;;;;10458964;28;20240;-71
2022/07/25 14:26:41;;;;;;;6.20;5.80;;;38.00;13.40;;;;;;10462415;28;20225;-71
2022/07/25 14:31:44;;;;;;;6.03;5.63;;;38.00;13.90;;;;;;10462193;28;20592;-71
2022/07/25 14:36:48;;;;;;;6.47;6.07;;;38.10;14.10;;;;;;10457420;28;20236;-76
2022/07/25 14:41:52;;;;;;;6.10;5.70;;;38.10;13.50;;;;;;10469417;28;20225;-76
2022/07/25 14:46:56;;;;;;;6.47;6.07;;;38.10;13.70;;;;;;10471504;28;20315;-76
2022/07/25 14:52:01;;;;;;;6.68;6.28;;;38.10;13.60;;;;;;10469223;28;20248;-76
2022/07/25 14:57:04;;;;;;;6.00;5.60;;;38.10;13.20;;;;;;10474244;28;20704;-76
2022/07/25 15:02:09;;;;;;;6.50;5.97;;;38.10;13.50;;;;;;10472004;28;20242;-76
2022/07/25 15:07:14;;;;;;;6.65;6.22;;;38.20;13.70;;;;;;10467556;28;20231;-76
2022/07/25 15:12:18;;;;;;;6.63;6.20;;;38.20;12.80;;;;;;10474649;28;20251;-76
2022/07/25 15:17:21;;;;;;;6.23;5.83;;;38.20;13.00;;;;;;10475021;28;20236;-77
2022/07/25 15:22:26;;;;;;;6.55;6.15;;;38.20;12.80;;;;;;10467701;28;20697;-76
2022/07/25 15:27:29;;;;;;;6.72;6.22;;;38.20;12.30;;;;;;10468732;28;20600;-76
2022/07/25 15:32:32;;;;;;;6.40;6.00;;;38.10;12.60;;;;;;10468571;28;20246;-76
2022/07/25 15:37:37;;;;;;;5.95;5.55;;;38.10;12.80;;;;;;10467412;28;20775;-76
2022/07/25 15:42:40;;;;;;;6.88;6.30;;;38.10;12.50;;;;;;10471985;28;20844;-76
2022/07/25 15:47:43;;;;;;;6.15;5.75;;;38.10;12.50;;;;;;10461945;28;20225;-76
2022/07/25 15:52:54;;;;;;;6.80;6.30;;;38.20;12.60;;;;;;10470166;28;20220;-76
2022/07/25 15:57:57;;;;;;;6.85;6.40;;;38.20;12.00;;;;;;10469801;28;20235;-76
2022/07/25 16:03:00;;;;;;;6.90;6.40;;;38.10;12.40;;;;;;10463898;28;20221;-77
2022/07/25 16:08:07;;;;;;;6.47;6.07;;;38.10;12.30;;;;;;10460777;28;20943;-77
2022/07/25 16:13:10;;;;;;;7.00;6.40;;;38.10;12.00;;;;;;10468694;28;20225;-77
2022/07/25 16:18:13;;;;;;;6.70;6.20;;;38.10;12.40;;;;;;10467231;28;20228;-77
2022/07/25 16:23:17;;;;;;;6.93;6.43;;;38.10;12.40;;;;;;10470809;28;20216;-77
2022/07/25 16:28:21;;;;;;;6.57;6.07;;;38.20;12.20;;;;;;10474239;28;20233;-71
2022/07/25 16:33:24;;;;;;;6.87;6.27;;;38.20;12.40;;;;;;10461904;28;20236;-71
2022/07/25 16:38:28;;;;;;;7.20;6.70;;;38.20;12.20;;;;;;10465498;28;20602;-71
2022/07/25 16:43:32;;;;;;;7.20;6.70;;;38.10;11.90;;;;;;10461629;28;20225;-71
2022/07/25 16:48:36;;;;;;;6.57;6.17;;;37.90;12.10;;;;;;10462406;28;20224;-71
2022/07/25 16:53:41;;;;;;;7.10;6.50;;;37.80;12.20;;;;;;10464383;28;20236;-71
2022/07/25 16:58:45;;;;;;;8.87;7.60;;;37.60;12.20;;;;;;10451170;28;21478;-71
2022/07/25 17:03:48;;;;;;;8.10;7.40;;;37.30;13.20;;;;;;10457933;28;20241;-71
2022/07/25 17:08:53;;;;;;;7.40;6.73;;;36.70;14.00;;;;;;10459192;28;20220;-71
2022/07/25 17:13:56;;;;;;;8.77;7.57;;;35.60;16.00;;;;;;10462357;28;20249;-70
2022/07/25 17:18:59;;;;;;;8.30;7.60;;;34.50;17.10;;;;;;10458071;28;20244;-71
2022/07/25 17:24:05;;;;;;;8.00;7.20;;;33.50;18.60;;;;;;10458002;28;20236;-71
2022/07/25 17:29:08;;;;;;;8.07;7.20;;;32.40;20.80;;;;;;10460988;28;20232;-71
2022/07/25 17:34:12;;;;;;;7.63;6.80;;;31.60;20.90;;;;;;10459530;28;20237;-76
2022/07/25 17:39:17;;;;;;;7.27;6.57;;;31.00;21.60;;;;;;10469843;28;20253;-77
2022/07/25 17:44:20;;;;;;;7.57;6.50;;;30.70;23.10;;;;;;10457678;28;20651;-72
2022/07/25 17:49:23;;;;;;;7.63;6.10;;;30.60;22.80;;;;;;10464163;28;20239;-76
2022/07/25 17:54:28;;;;;;;7.37;6.63;;;30.60;22.80;;;;;;10473840;28;20232;-76
2022/07/25 17:59:32;;;;;;;7.00;6.33;;;30.60;23.80;;;;;;10475951;28;20240;-76
2022/07/25 18:04:36;;;;;;;9.07;6.10;;;30.70;23.40;;;;;;10469210;28;20224;-76
2022/07/25 18:09:41;;;;;;;6.77;6.17;;;30.80;23.50;;;;;;10466976;28;20252;-76
2022/07/25 18:14:44;;;;;;;7.33;6.73;;;30.80;24.00;;;;;;10472179;28;20728;-75
2022/07/25 18:19:47;;;;;;;7.03;6.43;;;30.80;23.70;;;;;;10467640;28;20764;-75
2022/07/25 18:24:52;;;;;;;6.37;5.77;;;30.70;23.70;;;;;;10470241;28;20220;-76
2022/07/25 18:29:55;;;;;;;6.20;5.63;;;30.60;24.10;;;;;;10457771;28;20805;-76
2022/07/25 18:34:58;;;;;;;6.03;5.53;;;30.60;23.90;;;;;;10466634;28;20240;-75
2022/07/25 18:40:03;;;;;;;6.13;5.63;;;30.50;23.80;;;;;;10467202;28;20220;-76
2022/07/25 18:45:08;;;;;;;6.40;5.90;;;30.50;24.80;;;;;;10469282;28;20603;-75
2022/07/25 18:50:12;;;;;;;6.10;5.60;;;30.40;24.40;;;;;;10474063;28;20220;-76
2022/07/25 18:55:16;;;;;;;6.30;5.73;;;30.30;24.20;;;;;;10467503;28;20232;-76
2022/07/25 19:00:20;;;;;;;6.43;5.83;;;30.10;25.40;;;;;;10467953;28;20239;-76
2022/07/25 19:05:23;;;;;;;5.90;5.50;;;30.10;25.50;;;;;;10462270;28;20232;-76
2022/07/25 19:10:28;;;;;;;5.97;5.13;;;30.00;25.20;;;;;;10472746;28;20235;-76
2022/07/25 19:15:34;;;;;;;5.77;5.27;;;29.90;26.10;;;;;;10463193;28;20237;-76
2022/07/25 19:20:38;;;;;;;5.60;5.10;;;29.90;25.80;;;;;;10466974;28;20961;-75
2022/07/25 19:25:43;;;;;;;5.90;5.20;;;29.80;25.80;;;;;;10466354;28;20224;-75
2022/07/25 19:30:46;;;;;;;5.87;5.47;;;29.70;26.30;;;;;;10467068;28;20224;-75
2022/07/25 19:35:49;;;;;;;7.00;5.50;;;29.70;26.60;;;;;;10462229;28;20590;-75
2022/07/25 19:40:55;;;;;;;6.00;5.50;;;29.70;26.90;;;;;;10458010;28;20231;-75
2022/07/25 19:45:59;;;;;;;6.10;5.57;;;29.70;27.40;;;;;;10466183;28;20223;-75
2022/07/25 19:51:02;;;;;;;6.47;5.37;;;29.70;27.10;;;;;;10472326;28;20307;-74
2022/07/25 19:56:08;;;;;;;5.53;5.13;;;29.70;27.20;;;;;;10459981;28;21020;-75
2022/07/25 20:01:11;;;;;;;5.13;4.73;;;29.60;27.50;;;;;;10463727;28;20232;-75
2022/07/25 20:06:14;;;;;;;5.60;5.10;;;29.50;26.80;;;;;;10458022;28;20228;-75
2022/07/25 20:11:19;;;;;;;4.90;4.60;;;29.40;27.40;;;;;;10464111;28;20597;-75
2022/07/25 20:16:22;;;;;;;4.77;4.37;;;29.20;27.30;;;;;;10455496;28;20232;-75
2022/07/25 20:21:28;;;;;;;5.77;4.77;;;29.10;27.10;;;;;;10468002;28;20692;-75
2022/07/25 20:26:33;;;;;;;5.20;4.70;;;29.00;27.60;;;;;;10462834;28;20225;-75
2022/07/25 20:31:36;;;;;;;5.60;5.20;;;28.90;27.90;;;;;;10462129;28;20244;-75
2022/07/25 20:36:39;;;;;;;5.57;4.93;;;28.90;27.70;;;;;;10459852;28;20232;-76
2022/07/25 20:41:44;;;;;;;5.40;5.00;;;28.80;27.90;;;;;;10469797;28;20235;-75
2022/07/25 20:46:47;;;;;;;5.47;5.00;;;28.70;28.40;;;;;;10464335;28;20229;-76
2022/07/25 20:51:50;;;;;;;5.70;5.20;;;28.60;28.50;;;;;;10463291;28;20228;-75
2022/07/25 20:56:58;;;;;;;5.63;5.10;;;28.60;28.70;;;;;;10469317;28;20745;-75
2022/07/25 21:02:01;;;;;;;5.23;4.73;;;28.60;29.20;;;;;;10464272;28;20220;-75
2022/07/25 21:07:04;;;;;;;5.70;5.20;;;28.60;28.50;;;;;;10460826;28;20238;-75
2022/07/25 21:12:10;;;;;;;6.53;4.90;;;28.50;28.80;;;;;;10469601;28;20278;-75
2022/07/25 21:17:14;;;;;;;5.47;5.07;;;28.50;29.20;;;;;;10464612;28;20592;-75
2022/07/25 21:22:17;;;;;;;6.10;5.50;;;28.40;28.50;;;;;;10469221;28;20221;-76
2022/07/25 21:27:22;;;;;;;6.67;6.17;;;28.20;28.80;;;;;;10471932;28;20605;-76
2022/07/25 21:32:25;;;;;;;8.17;7.47;;;28.20;30.30;;;;;;10471641;28;20231;-75
2022/07/25 21:37:29;;;;;;;8.60;7.90;;;28.00;29.80;;;;;;10475607;28;20228;-76
2022/07/25 21:42:34;;;;;;;7.60;6.90;;;27.80;30.10;;;;;;10470614;28;20251;-75
2022/07/25 21:47:38;;;;;;;7.47;6.87;;;27.60;30.50;;;;;;10473171;28;20235;-75
2022/07/25 21:52:41;;;;;;;9.37;8.57;;;27.40;30.40;;;;;;10476477;28;20712;-75
2022/07/25 21:57:46;;;;;;;9.47;8.37;;;27.30;31.40;;;;;;10471062;28;20224;-75
2022/07/25 22:02:50;;;;;;;8.23;7.27;;;26.90;33.00;;;;;;10480853;28;20252;-76
2022/07/25 22:07:54;;;;;;;8.33;7.53;;;26.60;32.50;;;;;;10474866;28;20247;-76
2022/07/25 22:12:58;;;;;;;7.33;6.83;;;26.30;33.40;;;;;;10471030;28;20224;-75
2022/07/25 22:18:01;;;;;;;7.20;6.50;;;26.00;34.60;;;;;;10471132;28;20231;-74
2022/07/25 22:23:07;;;;;;;7.47;6.63;;;25.70;34.30;;;;;;10470573;28;20306;-75
2022/07/25 22:28:11;;;;;;;6.43;5.90;;;25.50;34.50;;;;;;10469893;28;20734;-75
2022/07/25 22:33:16;;;;;;;6.23;5.73;;;25.30;35.90;;;;;;10474591;28;20224;-75
2022/07/25 22:38:19;;;;;;;6.87;5.80;;;25.10;35.40;;;;;;10478211;28;20242;-76
2022/07/25 22:43:24;;;;;;;6.27;5.63;;;24.90;35.80;;;;;;10474149;28;20231;-75
2022/07/25 22:48:47;;;;;;;5.80;5.30;;;24.70;37.00;;;;;;10469444;28;20228;-75
2022/07/25 22:53:50;;;;;;;5.60;5.10;;;24.50;36.40;;;;;;10468393;28;20715;-76
2022/07/25 22:58:56;;;;;;;5.47;4.97;;;24.40;36.90;;;;;;10462411;28;20598;-71
2022/07/25 23:03:59;;;;;;;5.33;4.93;;;24.30;38.20;;;;;;10460341;28;20224;-71
2022/07/25 23:09:02;;;;;;;6.63;5.97;;;24.30;37.40;;;;;;10460654;28;20611;-72
2022/07/25 23:14:08;;;;;;;6.07;5.57;;;24.40;38.00;;;;;;10458608;28;20224;-71
2022/07/25 23:19:11;;;;;;;7.10;6.40;;;24.30;39.30;;;;;;10461854;28;20228;-71
2022/07/25 23:24:14;;;;;;;7.00;6.40;;;24.30;38.60;;;;;;10461199;28;20239;-71
2022/07/25 23:29:18;;;;;;;6.60;6.00;;;24.20;38.80;;;;;;10465375;28;20706;-71
2022/07/25 23:34:22;;;;;;;7.40;6.70;;;24.20;40.10;;;;;;10461042;28;20246;-71
2022/07/25 23:39:25;;;;;;;6.87;6.10;;;24.20;39.40;;;;;;10458614;28;20240;-71
2022/07/25 23:44:30;;;;;;;6.60;6.00;;;24.10;39.60;;;;;;10461823;28;20231;-71
2022/07/25 23:49:33;;;;;;;6.70;5.83;;;24.00;40.00;;;;;;10460456;28;20604;-71
2022/07/25 23:54:37;;;;;;;6.57;5.97;;;24.00;39.70;;;;;;10462731;28;20719;-71
2022/07/25 23:59:42;;;;;;;6.13;5.63;;;24.00;40.00;;;;;;10461777;28;20231;-71
